Time;durP1;ratioP1;P1;durP2;ratioP2;P2;SDS_P1;SDS_P2;PMS_P1;PMS_P2;Temp;Humidity;BMP_temperature;BMP_pressure;BME280_temperature;BME280_humidity;BME280_pressure;Samples;Min_cycle;Max_cycle;Signal;HPM_P1;HPM_P2
2022/03/31 00:00:49;;;;;;;1.08;0.50;;;9.20;74.60;;;;;;5030673;28;20041;-66
2022/03/31 00:03:18;;;;;;;2.20;0.60;;;9.20;74.70;;;;;;5010904;28;20057;-66
2022/03/31 00:05:45;;;;;;;1.98;0.82;;;9.10;76.00;;;;;;5019875;28;20504;-66
2022/03/31 00:08:31;;;;;;;2.00;0.82;;;9.10;76.10;;;;;;5014741;28;20424;-66
2022/03/31 00:10:57;;;;;;;3.20;1.08;;;9.10;76.00;;;;;;5010067;28;20046;-66
2022/03/31 00:13:29;;;;;;;5.55;0.85;;;9.10;76.80;;;;;;5010826;28;20080;-66
2022/03/31 00:15:57;;;;;;;5.32;1.20;;;9.00;76.90;;;;;;5023642;28;20536;-66
2022/03/31 00:18:25;;;;;;;1.27;0.80;;;9.00;77.50;;;;;;5021877;28;20038;-66
2022/03/31 00:24:36;;;;;;;3.40;1.30;;;9.00;78.90;;;;;;5021779;28;20400;-66
2022/03/31 00:27:02;;;;;;;2.70;1.40;;;8.90;79.30;;;;;;5034516;28;20030;-66
2022/03/31 00:29:28;;;;;;;6.53;1.50;;;8.90;79.30;;;;;;5014810;28;20076;-66
2022/03/31 00:31:57;;;;;;;2.88;1.98;;;8.80;79.50;;;;;;5026827;28;20033;-66
2022/03/31 00:34:23;;;;;;;4.07;1.65;;;8.80;80.20;;;;;;5022404;28;20029;-66
2022/03/31 00:36:54;;;;;;;3.78;2.08;;;8.80;80.60;;;;;;5019823;28;20026;-66
2022/03/31 00:39:29;;;;;;;4.90;1.70;;;8.80;80.50;;;;;;5013812;28;20042;-66
2022/03/31 00:41:55;;;;;;;3.50;1.70;;;8.80;80.80;;;;;;5014285;28;20156;-66
2022/03/31 00:44:21;;;;;;;9.10;1.65;;;8.80;81.00;;;;;;5024667;28;20041;-66
2022/03/31 00:46:52;;;;;;;4.25;1.83;;;8.80;81.00;;;;;;5016087;28;20052;-66
2022/03/31 00:49:19;;;;;;;3.75;1.85;;;8.70;81.20;;;;;;5023918;28;20048;-66
2022/03/31 00:51:46;;;;;;;3.38;1.95;;;8.70;81.20;;;;;;5032878;28;20034;-66
2022/03/31 00:54:14;;;;;;;3.60;1.90;;;8.70;81.20;;;;;;5033636;28;20060;-66
2022/03/31 00:56:42;;;;;;;3.58;1.60;;;8.70;81.30;;;;;;5027848;28;20046;-65
2022/03/31 00:59:09;;;;;;;7.55;2.65;;;8.70;81.40;;;;;;5029473;28;20037;-66
2022/03/31 01:01:42;;;;;;;3.13;1.83;;;8.70;81.60;;;;;;5033816;28;20050;-66
2022/03/31 01:04:09;;;;;;;6.28;2.10;;;8.70;81.70;;;;;;5020027;28;20541;-66
2022/03/31 01:06:35;;;;;;;7.28;1.83;;;8.80;82.20;;;;;;5029063;28;20037;-66
2022/03/31 01:09:05;;;;;;;3.47;2.13;;;8.70;82.20;;;;;;5023628;28;20037;-66
2022/03/31 01:11:32;;;;;;;4.65;1.75;;;8.70;82.60;;;;;;5013903;28;20432;-65
2022/03/31 01:13:59;;;;;;;4.57;2.15;;;8.70;82.70;;;;;;5013170;28;20037;-66
2022/03/31 01:16:25;;;;;;;8.35;2.47;;;8.70;83.10;;;;;;5013421;28;20036;-66
2022/03/31 01:18:51;;;;;;;6.93;2.35;;;8.70;83.20;;;;;;5013427;28;20054;-66
2022/03/31 01:21:18;;;;;;;3.97;2.22;;;8.70;83.30;;;;;;5012977;28;20141;-66
2022/03/31 01:23:47;;;;;;;3.50;2.22;;;8.70;83.60;;;;;;5021682;28;20385;-66
2022/03/31 01:26:13;;;;;;;5.82;2.35;;;8.60;83.80;;;;;;5026976;28;20037;-65
2022/03/31 01:28:41;;;;;;;6.13;2.30;;;8.60;84.00;;;;;;5012537;28;20064;-66
2022/03/31 01:31:07;;;;;;;7.35;2.67;;;8.60;84.30;;;;;;5014912;28;20025;-66
2022/03/31 01:33:33;;;;;;;4.22;2.55;;;8.60;84.60;;;;;;5019735;28;20425;-66
2022/03/31 01:36:01;;;;;;;4.07;2.22;;;8.50;84.90;;;;;;5031247;28;20064;-65
2022/03/31 01:38:27;;;;;;;4.03;2.33;;;8.50;85.20;;;;;;5032794;28;20432;-66
2022/03/31 01:40:53;;;;;;;3.30;2.20;;;8.50;85.50;;;;;;5022826;28;20092;-65
2022/03/31 01:43:21;;;;;;;5.05;2.28;;;8.40;85.90;;;;;;5012429;28;20490;-66
2022/03/31 01:45:48;;;;;;;4.50;2.70;;;8.40;86.20;;;;;;5032625;28;20045;-66
2022/03/31 01:48:16;;;;;;;3.22;2.22;;;8.40;86.60;;;;;;5014413;28;20369;-66
2022/03/31 01:50:42;;;;;;;3.00;2.22;;;8.40;87.00;;;;;;5024819;28;20033;-66
2022/03/31 01:53:09;;;;;;;6.00;2.22;;;8.40;87.40;;;;;;5027281;28;20092;-66
2022/03/31 01:55:35;;;;;;;2.90;2.15;;;8.30;87.70;;;;;;5012517;28;20037;-66
2022/03/31 01:58:04;;;;;;;4.82;2.15;;;8.30;88.00;;;;;;5031315;28;20045;-66
2022/03/31 02:00:29;;;;;;;3.83;2.38;;;8.20;88.40;;;;;;5028442;28;21263;-66
2022/03/31 02:02:55;;;;;;;4.47;2.10;;;8.20;88.80;;;;;;5031884;28;20595;-67
2022/03/31 02:05:21;;;;;;;6.25;2.30;;;8.10;89.00;;;;;;5029124;28;20037;-67
2022/03/31 02:07:53;;;;;;;4.80;1.92;;;8.10;89.20;;;;;;5020637;28;20088;-66
2022/03/31 02:10:18;;;;;;;6.68;2.53;;;8.10;89.40;;;;;;5031722;28;20029;-66
2022/03/31 02:12:50;;;;;;;6.22;2.50;;;8.00;89.50;;;;;;5013443;28;20500;-66
2022/03/31 02:15:15;;;;;;;3.60;1.90;;;8.00;89.80;;;;;;5012861;28;20033;-66
2022/03/31 02:17:41;;;;;;;2.33;1.70;;;8.00;89.90;;;;;;5019937;28;20029;-66
2022/03/31 02:20:08;;;;;;;6.65;2.38;;;8.00;90.00;;;;;;5033504;28;20033;-66
2022/03/31 02:22:34;;;;;;;2.55;2.00;;;8.00;90.10;;;;;;5032209;28;20029;-66
2022/03/31 02:25:00;;;;;;;4.15;1.60;;;8.00;90.20;;;;;;5032629;28;20033;-66
2022/03/31 02:27:26;;;;;;;3.08;1.92;;;7.90;90.20;;;;;;5015138;28;20036;-67
2022/03/31 02:29:51;;;;;;;5.25;2.28;;;7.90;90.20;;;;;;5013714;28;20038;-66
2022/03/31 02:32:17;;;;;;;3.05;2.10;;;7.90;90.20;;;;;;5011868;28;20049;-67
2022/03/31 02:34:43;;;;;;;3.78;1.92;;;7.90;90.20;;;;;;5023435;28;20033;-66
2022/03/31 02:37:08;;;;;;;3.30;2.08;;;7.90;90.30;;;;;;5022039;28;20033;-66
2022/03/31 02:39:34;;;;;;;4.32;2.05;;;7.80;90.30;;;;;;5012301;28;20033;-66
2022/03/31 02:42:03;;;;;;;3.22;2.00;;;7.90;90.30;;;;;;5012866;28;20045;-66
2022/03/31 02:44:29;;;;;;;2.83;2.00;;;7.90;90.30;;;;;;5017973;28;20030;-66
2022/03/31 02:46:54;;;;;;;1.92;1.50;;;7.90;90.40;;;;;;5013125;28;20091;-66
2022/03/31 02:49:20;;;;;;;2.30;1.70;;;7.80;90.50;;;;;;5012807;28;20064;-66
2022/03/31 02:51:46;;;;;;;1.42;1.30;;;7.90;90.60;;;;;;5013216;28;20072;-66
2022/03/31 02:56:56;;;;;;;1.50;1.40;;;7.80;90.50;;;;;;5012782;28;20057;-66
2022/03/31 02:59:22;;;;;;;1.38;1.27;;;7.80;90.60;;;;;;5031225;28;20049;-66
2022/03/31 03:01:48;;;;;;;3.15;1.98;;;7.60;90.60;;;;;;5017207;28;20065;-66
2022/03/31 03:04:13;;;;;;;2.30;1.60;;;7.60;90.70;;;;;;5020805;28;20450;-66
2022/03/31 03:06:39;;;;;;;2.30;1.38;;;7.60;90.80;;;;;;5016480;28;20030;-66
2022/03/31 03:09:06;;;;;;;1.35;1.25;;;7.60;90.90;;;;;;5020683;28;20108;-66
2022/03/31 03:11:33;;;;;;;2.10;0.80;;;7.60;90.90;;;;;;5032221;28;20029;-66
2022/03/31 03:13:58;;;;;;;1.15;1.10;;;7.60;90.90;;;;;;5024298;28;20144;-66
2022/03/31 03:16:25;;;;;;;2.22;1.50;;;7.50;90.90;;;;;;5011948;28;20104;-66
2022/03/31 03:18:52;;;;;;;2.30;1.50;;;7.50;91.00;;;;;;5018802;28;20087;-66
2022/03/31 03:21:19;;;;;;;1.30;1.17;;;7.50;91.10;;;;;;5030064;28;20041;-66
2022/03/31 03:23:45;;;;;;;2.45;1.65;;;7.50;91.10;;;;;;5019763;28;20100;-66
2022/03/31 03:26:12;;;;;;;2.75;2.03;;;7.50;91.10;;;;;;5030393;28;20029;-66
2022/03/31 03:28:38;;;;;;;1.83;1.58;;;7.40;91.10;;;;;;5011243;28;20034;-66
2022/03/31 03:31:05;;;;;;;1.10;1.00;;;7.50;91.20;;;;;;5013021;28;20481;-66
2022/03/31 03:33:32;;;;;;;2.17;1.48;;;7.40;91.30;;;;;;5011497;28;20030;-66
2022/03/31 03:36:03;;;;;;;1.33;1.20;;;7.40;91.20;;;;;;5011816;28;20061;-66
2022/03/31 03:38:31;;;;;;;2.55;1.15;;;7.40;91.20;;;;;;5011887;28;20041;-66
2022/03/31 03:40:57;;;;;;;1.13;1.08;;;7.30;91.20;;;;;;5013411;28;20049;-66
2022/03/31 03:43:22;;;;;;;3.22;1.63;;;7.30;91.30;;;;;;5031715;28;20040;-66
2022/03/31 03:45:48;;;;;;;2.97;1.58;;;7.30;91.30;;;;;;5031563;28;20033;-66
2022/03/31 03:48:14;;;;;;;3.00;1.77;;;7.30;91.40;;;;;;5020999;28;20030;-66
2022/03/31 03:50:40;;;;;;;4.03;1.27;;;7.20;91.70;;;;;;5027876;28;20075;-66
2022/03/31 03:53:09;;;;;;;1.58;1.27;;;7.30;91.30;;;;;;5021533;28;20436;-66
2022/03/31 03:55:37;;;;;;;1.05;1.00;;;7.20;91.30;;;;;;5026396;28;20025;-66
2022/03/31 03:58:03;;;;;;;2.42;1.70;;;7.20;91.30;;;;;;5026375;28;20045;-65
2022/03/31 04:00:29;;;;;;;1.63;1.30;;;7.20;91.40;;;;;;5021234;28;20041;-65
2022/03/31 04:02:55;;;;;;;5.28;1.50;;;7.10;91.50;;;;;;5032525;28;20041;-66
2022/03/31 04:05:21;;;;;;;2.25;1.33;;;7.10;91.60;;;;;;5034915;28;20033;-66
2022/03/31 04:07:49;;;;;;;4.07;1.38;;;7.10;91.60;;;;;;5035280;28;20115;-66
2022/03/31 04:10:14;;;;;;;3.83;1.55;;;7.10;91.60;;;;;;5029466;28;20036;-66
2022/03/31 04:12:40;;;;;;;1.33;1.20;;;7.10;91.60;;;;;;5015147;28;20026;-66
2022/03/31 04:15:10;;;;;;;2.70;1.70;;;7.10;91.60;;;;;;5015372;28;20057;-66
2022/03/31 04:17:36;;;;;;;1.92;1.20;;;7.10;91.60;;;;;;5014204;28;20389;-65
2022/03/31 04:20:05;;;;;;;1.30;1.10;;;7.10;91.70;;;;;;5030461;28;20034;-66
2022/03/31 04:22:33;;;;;;;2.42;1.30;;;7.00;91.60;;;;;;5033997;28;20039;-66
2022/03/31 04:25:00;;;;;;;1.10;1.00;;;7.10;91.70;;;;;;5032885;28;20061;-66
2022/03/31 04:27:25;;;;;;;2.95;1.30;;;7.00;91.70;;;;;;5033985;28;20040;-67
2022/03/31 04:29:51;;;;;;;4.55;1.50;;;7.00;91.70;;;;;;5033826;28;20116;-66
2022/03/31 04:32:17;;;;;;;2.13;1.70;;;7.00;91.70;;;;;;5028506;28;20064;-65
2022/03/31 04:34:42;;;;;;;1.48;1.38;;;7.00;91.70;;;;;;5015087;28;20048;-66
2022/03/31 04:37:08;;;;;;;1.90;1.50;;;7.00;91.80;;;;;;5027423;28;20036;-66
2022/03/31 04:39:34;;;;;;;1.80;1.50;;;7.00;91.80;;;;;;5034246;28;20041;-67
2022/03/31 04:41:59;;;;;;;1.52;1.42;;;7.00;91.80;;;;;;5032204;28;20381;-67
2022/03/31 04:44:25;;;;;;;1.60;1.50;;;7.00;91.80;;;;;;5033966;28;20049;-64
2022/03/31 04:46:51;;;;;;;2.10;1.30;;;7.00;91.80;;;;;;5032520;28;20030;-64
2022/03/31 04:49:16;;;;;;;2.35;1.30;;;7.00;91.80;;;;;;5033368;28;20477;-64
2022/03/31 04:51:42;;;;;;;2.17;1.50;;;7.00;91.70;;;;;;5032662;28;20041;-65
2022/03/31 04:54:09;;;;;;;1.58;1.35;;;7.00;91.80;;;;;;5031864;28;20029;-64
2022/03/31 04:56:35;;;;;;;2.53;1.77;;;7.00;91.80;;;;;;5032392;28;20044;-65
2022/03/31 04:59:00;;;;;;;1.77;1.67;;;7.00;91.80;;;;;;5030606;28;20676;-64
2022/03/31 05:01:26;;;;;;;3.65;1.70;;;6.90;91.70;;;;;;5031689;28;20029;-64
2022/03/31 05:03:55;;;;;;;2.00;1.80;;;7.00;91.80;;;;;;5031797;28;20063;-65
2022/03/31 05:06:21;;;;;;;2.10;1.70;;;7.00;91.80;;;;;;5031784;28;20047;-65
2022/03/31 05:08:47;;;;;;;1.88;1.60;;;7.00;91.80;;;;;;5032831;28;20036;-63
2022/03/31 05:11:12;;;;;;;1.50;1.40;;;6.90;91.80;;;;;;5023816;28;20037;-65
2022/03/31 05:13:38;;;;;;;2.17;1.83;;;6.90;91.80;;;;;;5012912;28;20029;-65
2022/03/31 05:16:13;;;;;;;1.77;1.60;;;6.90;91.90;;;;;;5014553;28;20042;-64
2022/03/31 05:18:39;;;;;;;1.42;1.33;;;6.90;91.90;;;;;;5032475;28;20022;-65
2022/03/31 05:21:06;;;;;;;1.65;1.55;;;6.90;91.90;;;;;;5021396;28;20042;-64
2022/03/31 05:23:31;;;;;;;2.35;1.90;;;6.90;91.90;;;;;;5013701;28;20025;-64
2022/03/31 05:25:57;;;;;;;2.20;2.00;;;6.90;91.80;;;;;;5017445;28;20033;-64
2022/03/31 05:28:23;;;;;;;3.05;2.28;;;6.90;91.80;;;;;;5031644;28;20397;-63
2022/03/31 05:30:49;;;;;;;3.50;2.42;;;6.90;91.90;;;;;;5032100;28;20064;-64
2022/03/31 05:33:15;;;;;;;3.35;2.10;;;6.90;91.80;;;;;;5031809;28;20029;-64
2022/03/31 05:35:41;;;;;;;2.33;1.88;;;6.90;91.80;;;;;;5019761;28;20041;-64
2022/03/31 05:38:07;;;;;;;4.60;2.88;;;6.90;91.90;;;;;;5013812;28;20022;-64
2022/03/31 05:40:32;;;;;;;3.15;2.38;;;6.90;91.90;;;;;;5027049;28;20501;-65
2022/03/31 05:42:58;;;;;;;2.85;2.13;;;6.80;91.80;;;;;;5032997;28;20091;-64
2022/03/31 05:45:25;;;;;;;3.08;2.33;;;6.90;91.90;;;;;;5038462;28;20029;-66
2022/03/31 05:47:52;;;;;;;2.22;1.85;;;6.90;92.00;;;;;;5018409;28;20041;-64
2022/03/31 05:50:17;;;;;;;2.60;2.15;;;6.80;91.90;;;;;;5019450;28;20056;-64
2022/03/31 05:52:43;;;;;;;2.90;2.08;;;6.90;92.00;;;;;;5020843;28;20058;-64
2022/03/31 05:55:11;;;;;;;3.53;2.28;;;6.90;92.00;;;;;;5012153;28;20040;-64
2022/03/31 05:57:37;;;;;;;3.30;2.60;;;6.80;92.00;;;;;;5019573;28;20602;-64
2022/03/31 06:00:05;;;;;;;4.15;2.63;;;6.80;92.10;;;;;;5018794;28;20045;-64
2022/03/31 06:02:37;;;;;;;2.50;2.30;;;6.80;92.10;;;;;;5030729;28;20552;-64
2022/03/31 06:05:03;;;;;;;3.47;2.30;;;6.80;92.10;;;;;;5021001;28;20045;-64
2022/03/31 06:07:32;;;;;;;3.58;2.72;;;6.70;92.10;;;;;;5017573;28;20034;-64
2022/03/31 06:09:57;;;;;;;2.70;2.30;;;6.80;92.10;;;;;;5024644;28;20478;-64
2022/03/31 06:12:23;;;;;;;3.65;2.58;;;6.70;92.10;;;;;;5029163;28;20029;-64
2022/03/31 06:14:49;;;;;;;2.58;2.25;;;6.70;92.10;;;;;;5020525;28;20038;-64
2022/03/31 06:17:15;;;;;;;3.05;2.50;;;6.70;92.10;;;;;;5024714;28;20053;-64
2022/03/31 06:19:40;;;;;;;3.58;2.92;;;6.70;92.10;;;;;;5013321;28;20087;-64
2022/03/31 06:22:06;;;;;;;2.72;2.38;;;6.70;92.10;;;;;;5020837;28;20046;-64
2022/03/31 06:24:32;;;;;;;3.55;2.67;;;6.70;92.10;;;;;;5017811;28;20045;-64
2022/03/31 06:26:59;;;;;;;4.28;2.90;;;6.70;92.10;;;;;;5012388;28;20034;-64
2022/03/31 06:29:25;;;;;;;3.97;2.53;;;6.70;92.20;;;;;;5012618;28;20030;-64
2022/03/31 06:31:53;;;;;;;3.53;2.58;;;6.70;92.20;;;;;;5013165;28;20497;-64
2022/03/31 06:34:22;;;;;;;4.65;3.03;;;6.70;92.20;;;;;;5027460;28;20405;-64
2022/03/31 06:36:48;;;;;;;3.40;2.88;;;6.70;92.20;;;;;;5030633;28;20037;-64
2022/03/31 06:39:13;;;;;;;3.67;2.63;;;6.70;92.50;;;;;;5028754;28;20164;-64
2022/03/31 06:41:40;;;;;;;6.45;3.40;;;6.60;92.30;;;;;;5022251;28;20775;-64
2022/03/31 06:44:12;;;;;;;4.22;3.42;;;6.70;92.30;;;;;;5021558;28;20124;-64
2022/03/31 06:46:41;;;;;;;4.40;3.08;;;6.70;92.30;;;;;;5020893;28;20034;-64
2022/03/31 06:49:06;;;;;;;4.75;3.05;;;6.70;92.30;;;;;;5017757;28;20367;-64
2022/03/31 06:51:32;;;;;;;4.72;2.95;;;6.60;92.30;;;;;;5019322;28;20038;-64
2022/03/31 06:53:59;;;;;;;5.50;3.67;;;6.60;92.30;;;;;;5025124;28;20038;-64
2022/03/31 06:56:29;;;;;;;4.53;3.22;;;6.60;92.30;;;;;;5012296;28;20097;-64
2022/03/31 06:58:56;;;;;;;4.00;2.95;;;6.60;92.40;;;;;;5030427;28;20037;-64
2022/03/31 07:01:21;;;;;;;3.80;2.85;;;6.60;92.40;;;;;;5018739;28;20038;-64
2022/03/31 07:03:47;;;;;;;4.60;3.38;;;6.60;92.40;;;;;;5031788;28;20034;-64
2022/03/31 07:06:14;;;;;;;4.97;3.40;;;6.60;92.70;;;;;;5030774;28;20029;-64
2022/03/31 07:08:40;;;;;;;4.88;3.63;;;6.60;92.40;;;;;;5025581;28;20029;-64
2022/03/31 07:11:05;;;;;;;4.50;3.38;;;6.60;92.40;;;;;;5032781;28;20508;-64
2022/03/31 07:13:31;;;;;;;4.07;2.72;;;6.60;92.40;;;;;;5016061;28;20034;-64
2022/03/31 07:15:57;;;;;;;4.68;3.72;;;6.70;92.50;;;;;;5011846;28;20026;-64
2022/03/31 07:18:23;;;;;;;3.13;2.40;;;6.60;92.50;;;;;;5012433;28;20037;-64
2022/03/31 07:20:50;;;;;;;5.10;3.50;;;6.60;92.50;;;;;;5011944;28;20041;-64
2022/03/31 07:23:18;;;;;;;6.20;4.30;;;6.60;92.50;;;;;;5011835;28;20034;-64
2022/03/31 07:25:44;;;;;;;5.93;4.07;;;6.60;92.50;;;;;;5021825;28;20034;-64
2022/03/31 07:28:10;;;;;;;4.65;3.20;;;6.60;92.60;;;;;;5027261;28;20045;-64
2022/03/31 07:30:36;;;;;;;5.63;4.00;;;6.60;92.60;;;;;;5022081;28;20052;-64
2022/03/31 07:33:04;;;;;;;5.32;3.67;;;6.60;92.60;;;;;;5030542;28;20133;-64
2022/03/31 07:35:37;;;;;;;5.63;3.45;;;6.60;92.70;;;;;;5031695;28;20069;-64
2022/03/31 07:38:03;;;;;;;5.17;3.83;;;6.50;92.70;;;;;;5011837;28;20405;-64
2022/03/31 07:40:29;;;;;;;5.35;3.40;;;6.50;92.70;;;;;;5024480;28;20045;-64
2022/03/31 07:43:02;;;;;;;4.53;3.58;;;6.50;92.70;;;;;;5024215;28;20525;-64
2022/03/31 07:45:28;;;;;;;2.00;1.80;;;6.50;92.70;;;;;;5015902;28;20049;-64
2022/03/31 07:47:54;;;;;;;3.30;2.63;;;6.50;92.80;;;;;;5019813;28;20260;-66
2022/03/31 07:50:21;;;;;;;5.53;3.47;;;6.50;92.70;;;;;;5017338;28;20086;-65
2022/03/31 07:52:49;;;;;;;5.15;3.20;;;6.50;92.80;;;;;;5030483;28;20037;-64
2022/03/31 07:55:17;;;;;;;4.97;3.63;;;6.40;92.80;;;;;;5030250;28;20176;-64
2022/03/31 07:57:44;;;;;;;3.25;2.42;;;6.40;92.80;;;;;;5023724;28;20057;-64
2022/03/31 08:00:12;;;;;;;3.22;2.58;;;6.40;92.80;;;;;;5031580;28;20124;-64
2022/03/31 08:02:42;;;;;;;2.72;2.28;;;6.40;92.80;;;;;;5029947;28;20503;-64
2022/03/31 08:05:09;;;;;;;4.90;2.90;;;6.40;92.80;;;;;;5017902;28;20104;-64
2022/03/31 08:07:36;;;;;;;5.07;3.17;;;6.40;92.90;;;;;;5014515;28;20029;-64
2022/03/31 08:10:04;;;;;;;5.40;3.58;;;6.40;92.90;;;;;;5020381;28;20040;-63
2022/03/31 08:12:29;;;;;;;5.50;3.72;;;6.30;93.00;;;;;;5023355;28;20026;-64
2022/03/31 08:14:55;;;;;;;3.63;2.58;;;6.30;93.00;;;;;;5010393;28;20480;-64
2022/03/31 08:17:21;;;;;;;5.38;3.63;;;6.30;93.00;;;;;;5010753;28;20026;-65
2022/03/31 08:19:47;;;;;;;4.70;3.63;;;6.30;92.90;;;;;;5010933;28;20053;-64
2022/03/31 08:22:13;;;;;;;4.90;3.45;;;6.30;93.10;;;;;;5028833;28;20033;-64
2022/03/31 08:24:38;;;;;;;4.90;3.03;;;6.30;93.00;;;;;;5031360;28;20472;-64
2022/03/31 08:27:05;;;;;;;4.28;2.70;;;6.30;93.10;;;;;;5031376;28;20025;-64
2022/03/31 08:29:31;;;;;;;3.65;2.80;;;6.30;93.00;;;;;;5013314;28;20448;-64
2022/03/31 08:31:57;;;;;;;3.83;3.20;;;6.30;93.10;;;;;;5022005;28;20034;-64
2022/03/31 08:34:23;;;;;;;4.60;3.25;;;6.30;93.10;;;;;;5027934;28;20030;-64
2022/03/31 08:36:49;;;;;;;2.97;2.47;;;6.30;93.10;;;;;;5011362;28;20036;-64
2022/03/31 08:39:18;;;;;;;3.50;2.78;;;6.30;93.20;;;;;;5011083;28;20128;-64
2022/03/31 08:41:44;;;;;;;3.58;2.53;;;6.30;93.20;;;;;;5013462;28;20049;-64
2022/03/31 08:44:15;;;;;;;7.93;3.20;;;6.30;93.10;;;;;;5017646;28;20068;-64
2022/03/31 08:46:41;;;;;;;2.85;2.13;;;6.20;93.00;;;;;;5014359;28;20033;-64
2022/03/31 08:49:08;;;;;;;3.03;2.38;;;6.30;93.20;;;;;;5034646;28;20024;-64
2022/03/31 08:51:34;;;;;;;4.72;3.15;;;6.30;93.10;;;;;;5021480;28;20140;-64
2022/03/31 08:54:00;;;;;;;4.75;2.88;;;6.20;93.10;;;;;;5034977;28;20100;-64
2022/03/31 08:56:26;;;;;;;5.03;2.58;;;6.20;93.10;;;;;;5034123;28;20057;-64
2022/03/31 08:58:51;;;;;;;3.58;2.65;;;6.20;93.00;;;;;;5029619;28;20045;-64
2022/03/31 09:01:17;;;;;;;3.78;2.60;;;6.20;93.00;;;;;;5024114;28;20125;-64
2022/03/31 09:03:43;;;;;;;3.72;2.22;;;6.20;93.10;;;;;;5014125;28;20030;-64
2022/03/31 09:06:28;;;;;;;2.47;2.00;;;6.20;93.10;;;;;;5013994;28;20487;-64
2022/03/31 09:09:04;;;;;;;2.67;1.88;;;6.20;93.20;;;;;;5014513;28;20083;-64
2022/03/31 09:11:33;;;;;;;2.47;2.20;;;6.20;93.20;;;;;;5028629;28;20028;-64
2022/03/31 09:14:00;;;;;;;3.17;2.53;;;6.10;93.20;;;;;;5021096;28;20030;-64
2022/03/31 09:16:36;;;;;;;2.85;2.13;;;6.10;93.20;;;;;;5014378;28;20030;-65
2022/03/31 09:19:10;;;;;;;2.58;2.10;;;6.10;93.20;;;;;;5014841;28;20538;-67
2022/03/31 09:21:48;;;;;;;;;;;6.10;93.30;;;;;;5034536;28;20041;-65
2022/03/31 09:24:15;;;;;;;4.43;2.10;;;6.10;93.30;;;;;;5020809;28;19909;-65
2022/03/31 09:26:45;;;;;;;3.85;1.95;;;6.10;93.20;;;;;;5032260;28;20033;-64
2022/03/31 09:29:13;;;;;;;4.38;2.40;;;6.10;93.30;;;;;;5032343;28;20037;-64
2022/03/31 09:31:40;;;;;;;3.92;2.90;;;6.10;93.30;;;;;;5030368;28;20014;-64
2022/03/31 09:34:06;;;;;;;3.00;2.00;;;6.10;93.40;;;;;;5031941;28;20061;-64
2022/03/31 09:36:32;;;;;;;1.48;1.38;;;6.00;93.40;;;;;;5032377;28;20025;-68
2022/03/31 09:39:13;;;;;;;6.07;2.28;;;6.00;93.20;;;;;;5027666;28;20403;-65
2022/03/31 09:41:47;;;;;;;4.97;2.70;;;6.00;93.20;;;;;;5031782;28;20041;-65
2022/03/31 09:44:18;;;;;;;4.97;2.33;;;6.00;93.30;;;;;;5030322;28;20064;-64
2022/03/31 09:46:45;;;;;;;4.65;1.77;;;6.00;93.30;;;;;;5029320;28;20034;-64
2022/03/31 09:49:24;;;;;;;3.85;2.30;;;6.00;93.40;;;;;;5013386;28;20121;-64
2022/03/31 09:51:55;;;;;;;4.15;2.33;;;6.00;93.40;;;;;;5013076;28;20029;-64
2022/03/31 09:54:29;;;;;;;2.78;1.80;;;6.00;93.40;;;;;;5012606;28;20092;-65
2022/03/31 09:56:56;;;;;;;;;;;6.00;93.40;;;;;;5020952;28;20645;-64
2022/03/31 09:59:31;;;;;;;1.67;1.42;;;6.00;93.30;;;;;;5032609;28;19916;-64
2022/03/31 10:01:57;;;;;;;1.55;1.45;;;6.00;93.10;;;;;;5015701;28;20045;-64
2022/03/31 10:04:24;;;;;;;3.60;2.22;;;5.90;93.10;;;;;;5013612;28;20481;-64
2022/03/31 10:06:50;;;;;;;2.30;1.67;;;5.90;93.20;;;;;;5013685;28;20026;-64
2022/03/31 10:09:16;;;;;;;2.05;1.83;;;5.80;93.10;;;;;;5022935;28;20079;-64
2022/03/31 10:11:48;;;;;;;3.70;2.47;;;5.90;93.10;;;;;;5032485;28;20037;-64
2022/03/31 10:14:14;;;;;;;2.65;2.05;;;5.80;93.10;;;;;;5021435;28;20038;-65
2022/03/31 10:16:48;;;;;;;4.28;2.38;;;5.80;93.20;;;;;;5012217;28;20083;-66
2022/03/31 10:19:30;;;;;;;2.42;1.73;;;5.80;93.20;;;;;;5031160;28;20041;-64
2022/03/31 10:25:03;;;;;;;3.00;2.20;;;5.80;93.20;;;;;;5019777;28;20784;-64
2022/03/31 10:27:37;;;;;;;4.13;2.78;;;5.70;93.10;;;;;;5013525;28;20108;-64
2022/03/31 10:30:07;;;;;;;;;;;5.70;93.10;;;;;;5026838;28;20041;-65
2022/03/31 10:32:33;;;;;;;1.48;1.25;;;5.70;93.30;;;;;;5031356;28;19908;-64
2022/03/31 10:34:59;;;;;;;3.45;2.05;;;5.70;93.20;;;;;;5028868;28;20037;-64
2022/03/31 10:37:34;;;;;;;4.47;1.90;;;5.70;93.30;;;;;;5012141;28;20109;-64
2022/03/31 10:40:01;;;;;;;1.85;1.70;;;5.60;93.30;;;;;;5012077;28;20085;-64
2022/03/31 10:42:26;;;;;;;5.65;2.20;;;5.60;93.30;;;;;;5012691;28;20060;-65
2022/03/31 10:45:13;;;;;;;2.17;1.75;;;5.60;93.30;;;;;;5021133;28;20037;-65
2022/03/31 10:47:41;;;;;;;2.08;1.88;;;5.60;93.30;;;;;;5013813;28;20034;-64
2022/03/31 10:50:09;;;;;;;4.40;2.38;;;5.60;93.20;;;;;;5031126;28;20033;-65
2022/03/31 10:52:36;;;;;;;2.78;1.98;;;5.50;93.20;;;;;;5029515;28;20450;-64
2022/03/31 10:55:20;;;;;;;3.45;2.50;;;5.50;93.30;;;;;;5012337;28;20033;-64
2022/03/31 10:57:45;;;;;;;;;;;5.50;93.30;;;;;;5018843;28;20110;-64
2022/03/31 11:00:17;;;;;;;3.08;1.98;;;5.50;93.20;;;;;;5030356;28;19925;-65
2022/03/31 11:02:46;;;;;;;3.45;2.20;;;5.40;93.00;;;;;;5019935;28;20176;-65
2022/03/31 11:05:12;;;;;;;2.85;2.03;;;5.40;93.20;;;;;;5014625;28;20030;-65
2022/03/31 11:07:38;;;;;;;3.25;2.08;;;5.40;93.30;;;;;;5020875;28;20048;-66
2022/03/31 11:10:09;;;;;;;3.22;2.30;;;5.40;93.40;;;;;;5018335;28;20109;-65
2022/03/31 11:12:36;;;;;;;1.60;1.50;;;5.40;93.40;;;;;;5030665;28;20056;-65
2022/03/31 11:15:11;;;;;;;2.97;2.13;;;5.40;93.40;;;;;;5016048;28;20385;-65
2022/03/31 11:17:39;;;;;;;3.17;2.05;;;5.40;93.40;;;;;;5021917;28;20036;-65
2022/03/31 11:20:20;;;;;;;3.28;2.33;;;5.40;93.40;;;;;;5026537;28;20045;-65
2022/03/31 11:23:12;;;;;;;1.83;1.67;;;5.40;93.40;;;;;;5011676;28;20026;-66
2022/03/31 11:25:42;;;;;;;2.40;1.67;;;5.40;93.50;;;;;;5017017;28;20476;-65
2022/03/31 11:28:11;;;;;;;1.88;1.55;;;5.40;93.40;;;;;;5030085;28;20059;-64
2022/03/31 11:30:37;;;;;;;1.45;1.35;;;5.40;93.20;;;;;;5030625;28;20472;-64
2022/03/31 11:33:04;;;;;;;2.08;1.67;;;5.30;93.20;;;;;;5029283;28;20541;-64
2022/03/31 11:35:31;;;;;;;2.50;1.98;;;5.40;93.20;;;;;;5029864;28;20079;-65
2022/03/31 11:38:18;;;;;;;2.10;1.90;;;5.30;93.20;;;;;;5030591;28;20045;-64
2022/03/31 11:40:48;;;;;;;3.67;1.50;;;5.30;93.30;;;;;;5028808;28;20484;-65
2022/03/31 11:43:16;;;;;;;2.33;1.50;;;5.30;93.40;;;;;;5030674;28;20037;-65
2022/03/31 11:45:47;;;;;;;1.83;1.50;;;5.30;93.40;;;;;;5026863;28;20041;-64
2022/03/31 11:48:21;;;;;;;2.83;2.00;;;5.30;93.40;;;;;;5028611;28;20037;-64
2022/03/31 11:50:59;;;;;;;3.45;2.22;;;5.30;93.40;;;;;;5029167;28;20036;-65
2022/03/31 11:53:30;;;;;;;1.65;1.40;;;5.30;93.30;;;;;;5028697;28;20055;-66
2022/03/31 11:56:12;;;;;;;2.60;2.28;;;5.30;93.40;;;;;;5028228;28;20025;-65
2022/03/31 11:58:50;;;;;;;3.13;1.73;;;5.30;93.30;;;;;;5028407;28;20037;-65
2022/03/31 12:01:22;;;;;;;3.80;2.42;;;5.30;93.30;;;;;;5028839;28;20045;-66
2022/03/31 12:03:51;;;;;;;1.92;1.55;;;5.30;93.40;;;;;;5029945;28;20030;-65
2022/03/31 12:06:17;;;;;;;1.98;1.75;;;5.30;93.40;;;;;;5029741;28;20048;-66
2022/03/31 12:08:43;;;;;;;4.07;1.83;;;5.30;93.40;;;;;;5029590;28;20038;-66
2022/03/31 12:11:12;;;;;;;4.95;2.50;;;5.30;93.40;;;;;;5029810;28;20039;-64
2022/03/31 12:13:57;;;;;;;2.25;2.00;;;5.30;93.40;;;;;;5029122;28;20049;-64
2022/03/31 12:16:23;;;;;;;3.85;2.53;;;5.30;93.50;;;;;;5012639;28;20050;-71
2022/03/31 12:19:00;;;;;;;5.35;2.80;;;5.30;93.50;;;;;;5027604;28;20057;-64
2022/03/31 12:21:28;;;;;;;2.50;1.73;;;5.30;93.50;;;;;;5014096;28;20397;-64
2022/03/31 12:23:58;;;;;;;3.78;2.13;;;5.30;93.50;;;;;;5029764;28;20056;-64
2022/03/31 12:26:24;;;;;;;3.15;2.40;;;5.30;93.50;;;;;;5025618;28;20029;-64
2022/03/31 12:28:50;;;;;;;5.88;3.95;;;5.30;93.60;;;;;;5016007;28;20041;-64
2022/03/31 12:31:31;;;;;;;3.85;2.47;;;5.30;93.30;;;;;;5034441;28;20116;-63
2022/03/31 12:33:57;;;;;;;4.97;2.53;;;5.20;93.20;;;;;;5015516;28;20030;-63
2022/03/31 12:36:28;;;;;;;4.07;2.33;;;5.30;93.30;;;;;;5030591;28;20029;-63
2022/03/31 12:38:55;;;;;;;3.78;2.08;;;5.20;93.30;;;;;;5029616;28;20034;-64
2022/03/31 12:41:29;;;;;;;3.60;2.75;;;5.30;93.40;;;;;;5027844;28;20092;-63
2022/03/31 12:43:56;;;;;;;4.05;2.92;;;5.20;93.40;;;;;;5029412;28;20079;-63
2022/03/31 12:46:22;;;;;;;3.30;2.35;;;5.20;93.40;;;;;;5031275;28;20037;-63
2022/03/31 12:49:13;;;;;;;5.18;2.63;;;5.30;93.40;;;;;;5031720;28;20385;-63
2022/03/31 12:51:55;;;;;;;2.60;2.38;;;5.20;93.40;;;;;;5026132;28;20053;-63
2022/03/31 12:54:32;;;;;;;6.22;3.60;;;5.20;93.40;;;;;;5028204;28;20030;-63
2022/03/31 12:57:13;;;;;;;4.10;3.15;;;5.20;93.30;;;;;;5028154;28;20569;-63
2022/03/31 12:59:40;;;;;;;5.15;3.50;;;5.20;93.40;;;;;;5028168;28;20439;-63
2022/03/31 13:02:08;;;;;;;5.55;3.80;;;5.20;93.40;;;;;;5028920;28;20495;-63
2022/03/31 13:04:42;;;;;;;7.07;3.67;;;5.20;93.50;;;;;;5028160;28;20041;-63
2022/03/31 13:07:12;;;;;;;5.13;3.00;;;5.20;93.40;;;;;;5029362;28;20381;-63
2022/03/31 13:09:38;;;;;;;4.38;3.30;;;5.20;93.60;;;;;;5030305;28;20033;-63
2022/03/31 13:12:09;;;;;;;3.75;3.08;;;5.20;93.60;;;;;;5025425;28;20034;-63